Terminal Aerodrome Forecast
Issued by NWS

Home | Current Version | Previous Version | Text Only | Print | Product List | Glossary On
Versions: 1 2 3 4 5 6 7 8 9 10 11 12 13 14 15 16 17
000
FTUS45 KSLC 252344
TAF36U
TAF
K36U 252344Z 2600/2624 33008KT P6SM VCSH SCT030 BKN060
     FM260200 VRB04KT P6SM SCT050 BKN090
     FM261800 22010KT P6SM VCSH SCT050 BKN070
     FM262100 23012KT P6SM -SNRA SCT020 BKN040=

USA.gov is the U.S. government's official web portal to all federal, state and local government web resources and services.